AAL1322 KDFW-KDEN
Flight info
| Callsign | AAL1322 |
|---|---|
| Flight time | 1h 30m |
| Altitude | 32000 |
| Route | HUDAD2 HUDAD EZEEE ZIGEE NIIXX4 |
| Aircraft | B738/M-SDE2E3FGHIRWXY/LB1 |
Departure
| Time | 2026-05-06 18:27 |
|---|---|
| Airport | Dallas Fort Worth International Airport (KDFW) |
Arrival
| Time | 2026-05-06 19:57 |
|---|---|
| Airport | Denver International Airport (KDEN) |
| Time | Latitude | Longitude | Altitude | Speed | Heading |
|---|---|---|---|---|---|
| 2026-05-06 17:46 | 32.90160 | -97.03831 | 597 ft | 0 kts | 0° |
| 2026-05-06 18:11 | 32.90139 | -97.03831 | 597 ft | 4 kts | 5° |
| 2026-05-06 18:11 | 32.90122 | -97.03834 | 597 ft | 4 kts | 30° |
| 2026-05-06 18:11 | 32.90112 | -97.03847 | 597 ft | 0 kts | 90° |
| 2026-05-06 18:17 | 32.90112 | -97.03846 | 597 ft | 1 kts | 90° |
| 2026-05-06 18:18 | 32.90112 | -97.03818 | 597 ft | 7 kts | 90° |
| 2026-05-06 18:18 | 32.90111 | -97.03736 | 597 ft | 13 kts | 90° |
| 2026-05-06 18:18 | 32.90112 | -97.03616 | 597 ft | 15 kts | 89° |
| 2026-05-06 18:18 | 32.90111 | -97.03492 | 597 ft | 15 kts | 90° |
| 2026-05-06 18:19 | 32.90111 | -97.03372 | 597 ft | 14 kts | 90° |
| 2026-05-06 18:19 | 32.90110 | -97.03259 | 597 ft | 13 kts | 90° |
| 2026-05-06 18:19 | 32.90054 | -97.03191 | 597 ft | 13 kts | 188° |
| 2026-05-06 18:19 | 32.89964 | -97.03194 | 597 ft | 13 kts | 180° |
| 2026-05-06 18:20 | 32.89877 | -97.03195 | 597 ft | 12 kts | 180° |
| 2026-05-06 18:20 | 32.89793 | -97.03195 | 597 ft | 12 kts | 179° |
| 2026-05-06 18:20 | 32.89710 | -97.03195 | 597 ft | 12 kts | 180° |
| 2026-05-06 18:20 | 32.89630 | -97.03196 | 597 ft | 11 kts | 180° |
| 2026-05-06 18:21 | 32.89552 | -97.03196 | 597 ft | 11 kts | 180° |
| 2026-05-06 18:21 | 32.89474 | -97.03196 | 597 ft | 12 kts | 180° |
| 2026-05-06 18:21 | 32.89388 | -97.03197 | 597 ft | 13 kts | 180° |
| 2026-05-06 18:21 | 32.89295 | -97.03197 | 597 ft | 14 kts | 180° |
| 2026-05-06 18:22 | 32.89200 | -97.03198 | 597 ft | 13 kts | 180° |
| 2026-05-06 18:22 | 32.89109 | -97.03198 | 597 ft | 13 kts | 180° |
| 2026-05-06 18:22 | 32.89020 | -97.03199 | 597 ft | 13 kts | 180° |
| 2026-05-06 18:22 | 32.88934 | -97.03199 | 597 ft | 12 kts | 180° |
| 2026-05-06 18:23 | 32.88850 | -97.03200 | 597 ft | 12 kts | 180° |
| 2026-05-06 18:23 | 32.88768 | -97.03200 | 597 ft | 12 kts | 180° |
| 2026-05-06 18:23 | 32.88681 | -97.03201 | 597 ft | 13 kts | 180° |
| 2026-05-06 18:23 | 32.88590 | -97.03201 | 597 ft | 13 kts | 180° |
| 2026-05-06 18:24 | 32.88495 | -97.03201 | 597 ft | 14 kts | 180° |
| 2026-05-06 18:24 | 32.88397 | -97.03202 | 597 ft | 14 kts | 180° |
| 2026-05-06 18:24 | 32.88303 | -97.03202 | 597 ft | 13 kts | 180° |
| 2026-05-06 18:24 | 32.88215 | -97.03203 | 597 ft | 13 kts | 180° |
| 2026-05-06 18:25 | 32.88127 | -97.03203 | 597 ft | 12 kts | 180° |
| 2026-05-06 18:25 | 32.88041 | -97.03203 | 597 ft | 12 kts | 180° |
| 2026-05-06 18:25 | 32.87958 | -97.03204 | 597 ft | 12 kts | 177° |
| 2026-05-06 18:25 | 32.87906 | -97.03141 | 597 ft | 12 kts | 99° |
| 2026-05-06 18:26 | 32.87906 | -97.03045 | 597 ft | 11 kts | 71° |
| 2026-05-06 18:26 | 32.87989 | -97.03007 | 597 ft | 17 kts | 360° |
| 2026-05-06 18:26 | 32.88275 | -97.03005 | 597 ft | 74 kts | 0° |
| 2026-05-06 18:26 | 32.89006 | -97.03002 | 597 ft | 133 kts | 360° |
| 2026-05-06 18:27 | 32.90097 | -97.03013 | 733 ft | 173 kts | 0° |
| 2026-05-06 18:27 | 32.91329 | -97.03046 | 1396 ft | 182 kts | 358° |
| 2026-05-06 18:27 | 32.92618 | -97.03128 | 2197 ft | 185 kts | 355° |
| 2026-05-06 18:27 | 32.93919 | -97.03320 | 2837 ft | 199 kts | 355° |
| 2026-05-06 18:28 | 32.95351 | -97.03549 | 3243 ft | 215 kts | 355° |
| 2026-05-06 18:28 | 32.96899 | -97.03749 | 3633 ft | 231 kts | 357° |
| 2026-05-06 18:28 | 32.98513 | -97.03883 | 4072 ft | 241 kts | 351° |
| 2026-05-06 18:28 | 33.00109 | -97.04671 | 4298 ft | 261 kts | 317° |
| 2026-05-06 18:29 | 33.01405 | -97.06216 | 4986 ft | 265 kts | 313° |
| 2026-05-06 18:29 | 33.02749 | -97.07742 | 5695 ft | 269 kts | 314° |
| 2026-05-06 18:29 | 33.04148 | -97.09257 | 6343 ft | 275 kts | 314° |
| 2026-05-06 18:29 | 33.05567 | -97.10802 | 7009 ft | 276 kts | 307° |
| 2026-05-06 18:30 | 33.06400 | -97.12782 | 7701 ft | 265 kts | 274° |
| 2026-05-06 18:30 | 33.06303 | -97.14946 | 8471 ft | 261 kts | 260° |
| 2026-05-06 18:30 | 33.06038 | -97.17103 | 9160 ft | 264 kts | 259° |
| 2026-05-06 18:30 | 33.05755 | -97.19279 | 9867 ft | 266 kts | 260° |
| 2026-05-06 18:31 | 33.05473 | -97.21453 | 10394 ft | 275 kts | 259° |
| 2026-05-06 18:31 | 33.05171 | -97.23808 | 10551 ft | 298 kts | 259° |
| 2026-05-06 18:31 | 33.04849 | -97.26327 | 10709 ft | 318 kts | 259° |
| 2026-05-06 18:31 | 33.04511 | -97.29012 | 10842 ft | 336 kts | 259° |
| 2026-05-06 18:32 | 33.04158 | -97.31837 | 10962 ft | 352 kts | 260° |
| 2026-05-06 18:32 | 33.03793 | -97.34782 | 11127 ft | 365 kts | 260° |
| 2026-05-06 18:32 | 33.03422 | -97.37795 | 11495 ft | 369 kts | 259° |
| 2026-05-06 18:32 | 33.03048 | -97.40830 | 12040 ft | 370 kts | 259° |
| 2026-05-06 18:33 | 33.02673 | -97.43865 | 12574 ft | 370 kts | 259° |
| 2026-05-06 18:33 | 33.02297 | -97.46904 | 13113 ft | 371 kts | 259° |
| 2026-05-06 18:33 | 33.01924 | -97.49912 | 13651 ft | 372 kts | 258° |
| 2026-05-06 18:33 | 33.01544 | -97.52961 | 14126 ft | 373 kts | 258° |
| 2026-05-06 18:34 | 33.01165 | -97.56009 | 14726 ft | 370 kts | 258° |
| 2026-05-06 18:34 | 33.00786 | -97.59044 | 15270 ft | 370 kts | 258° |
| 2026-05-06 18:34 | 33.00407 | -97.62076 | 15872 ft | 369 kts | 258° |
| 2026-05-06 18:34 | 33.00026 | -97.65101 | 16482 ft | 369 kts | 258° |
| 2026-05-06 18:35 | 32.99649 | -97.68122 | 17090 ft | 369 kts | 259° |
| 2026-05-06 18:35 | 32.99563 | -97.71193 | 17702 ft | 374 kts | 269° |
| 2026-05-06 18:35 | 32.99891 | -97.74269 | 18364 ft | 376 kts | 274° |
| 2026-05-06 18:35 | 33.00508 | -97.77334 | 18833 ft | 384 kts | 281° |
| 2026-05-06 18:36 | 33.01435 | -97.80349 | 19220 ft | 391 kts | 285° |
| 2026-05-06 18:36 | 33.02547 | -97.83328 | 19578 ft | 395 kts | 287° |
| 2026-05-06 18:36 | 33.03721 | -97.86306 | 19929 ft | 397 kts | 288° |
| 2026-05-06 18:36 | 33.04897 | -97.89288 | 20307 ft | 398 kts | 287° |
| 2026-05-06 18:37 | 33.06062 | -97.92288 | 20641 ft | 400 kts | 287° |
| 2026-05-06 18:37 | 33.07202 | -97.95273 | 20966 ft | 401 kts | 287° |
| 2026-05-06 18:37 | 33.08352 | -97.98322 | 21279 ft | 403 kts | 287° |
| 2026-05-06 18:37 | 33.09500 | -98.01391 | 21543 ft | 406 kts | 287° |
| 2026-05-06 18:38 | 33.10649 | -98.04472 | 21845 ft | 407 kts | 287° |
| 2026-05-06 18:38 | 33.11802 | -98.07569 | 22160 ft | 409 kts | 286° |
| 2026-05-06 18:38 | 33.12958 | -98.10677 | 22470 ft | 410 kts | 286° |
| 2026-05-06 18:38 | 33.14119 | -98.13798 | 22751 ft | 412 kts | 286° |
| 2026-05-06 18:39 | 33.15283 | -98.16931 | 23025 ft | 414 kts | 286° |
| 2026-05-06 18:39 | 33.16438 | -98.20042 | 23287 ft | 416 kts | 286° |
| 2026-05-06 18:39 | 33.17613 | -98.23210 | 23548 ft | 417 kts | 286° |
| 2026-05-06 18:40 | 33.19973 | -98.29567 | 24002 ft | 420 kts | 286° |
| 2026-05-06 18:40 | 33.21157 | -98.32758 | 24229 ft | 421 kts | 286° |
| 2026-05-06 18:40 | 33.22345 | -98.35961 | 24420 ft | 423 kts | 286° |
| 2026-05-06 18:40 | 33.23544 | -98.39201 | 24517 ft | 427 kts | 286° |
| 2026-05-06 18:41 | 33.24744 | -98.42447 | 24728 ft | 428 kts | 286° |
| 2026-05-06 18:41 | 33.25948 | -98.45701 | 24969 ft | 428 kts | 286° |
| 2026-05-06 18:41 | 33.27152 | -98.48957 | 25177 ft | 428 kts | 286° |
| 2026-05-06 18:41 | 33.28358 | -98.52226 | 25355 ft | 430 kts | 285° |
| 2026-05-06 18:42 | 33.29563 | -98.55497 | 25533 ft | 431 kts | 285° |
| 2026-05-06 18:42 | 33.30758 | -98.58742 | 25710 ft | 431 kts | 285° |
| 2026-05-06 18:42 | 33.31967 | -98.62027 | 25875 ft | 432 kts | 285° |
| 2026-05-06 18:42 | 33.33175 | -98.65315 | 26081 ft | 431 kts | 285° |
| 2026-05-06 18:43 | 33.34382 | -98.68598 | 26327 ft | 430 kts | 285° |
| 2026-05-06 18:43 | 33.35583 | -98.71869 | 26582 ft | 428 kts | 285° |
| 2026-05-06 18:43 | 33.36780 | -98.75134 | 26841 ft | 427 kts | 285° |
| 2026-05-06 18:43 | 33.37971 | -98.78386 | 27317 ft | 420 kts | 284° |
| 2026-05-06 18:44 | 33.39120 | -98.81505 | 28028 ft | 409 kts | 284° |
| 2026-05-06 18:44 | 33.40258 | -98.84613 | 28401 ft | 408 kts | 283° |
| 2026-05-06 18:44 | 33.41393 | -98.87733 | 28570 ft | 410 kts | 283° |
| 2026-05-06 18:44 | 33.42532 | -98.90876 | 28730 ft | 411 kts | 283° |
| 2026-05-06 18:45 | 33.43672 | -98.94015 | 29000 ft | 410 kts | 283° |
| 2026-05-06 18:45 | 33.44807 | -98.97132 | 29349 ft | 407 kts | 283° |
| 2026-05-06 18:45 | 33.45936 | -99.00235 | 29687 ft | 405 kts | 283° |
| 2026-05-06 18:45 | 33.46681 | -99.02283 | 29901 ft | 404 kts | 283° |
| 2026-05-06 18:46 | 33.48177 | -99.06407 | 30269 ft | 403 kts | 283° |
| 2026-05-06 18:46 | 33.49281 | -99.09453 | 30476 ft | 402 kts | 282° |
| 2026-05-06 18:46 | 33.50395 | -99.12532 | 30674 ft | 403 kts | 282° |
| 2026-05-06 18:46 | 33.51508 | -99.15613 | 30882 ft | 402 kts | 282° |
| 2026-05-06 18:47 | 33.52619 | -99.18685 | 31154 ft | 401 kts | 282° |
| 2026-05-06 18:47 | 33.53726 | -99.21749 | 31417 ft | 400 kts | 282° |
| 2026-05-06 18:47 | 33.54830 | -99.24808 | 31656 ft | 399 kts | 282° |
| 2026-05-06 18:47 | 33.55930 | -99.27862 | 31880 ft | 399 kts | 282° |
| 2026-05-06 18:48 | 33.57016 | -99.30878 | 32029 ft | 399 kts | 282° |
| 2026-05-06 18:48 | 33.59222 | -99.37011 | 32030 ft | 400 kts | 282° |
| 2026-05-06 18:48 | 33.60562 | -99.39984 | 32066 ft | 413 kts | 291° |
| 2026-05-06 18:49 | 33.62300 | -99.42779 | 32041 ft | 421 kts | 296° |
| 2026-05-06 18:49 | 33.66564 | -99.47761 | 32040 ft | 440 kts | 309° |
| 2026-05-06 18:50 | 33.71564 | -99.52079 | 32038 ft | 443 kts | 310° |
| 2026-05-06 18:50 | 33.76610 | -99.56346 | 32042 ft | 443 kts | 310° |
| 2026-05-06 18:51 | 33.81603 | -99.60614 | 32046 ft | 442 kts | 310° |
| 2026-05-06 18:51 | 33.86608 | -99.64936 | 32067 ft | 443 kts | 310° |
| 2026-05-06 18:52 | 33.91618 | -99.69282 | 32052 ft | 443 kts | 310° |
| 2026-05-06 18:52 | 33.96592 | -99.73602 | 32057 ft | 443 kts | 309° |
| 2026-05-06 18:53 | 34.01592 | -99.77952 | 32053 ft | 443 kts | 309° |
| 2026-05-06 18:53 | 34.06590 | -99.82304 | 32062 ft | 442 kts | 309° |
| 2026-05-06 18:54 | 34.11580 | -99.86659 | 32076 ft | 443 kts | 309° |
| 2026-05-06 18:54 | 34.16571 | -99.91019 | 32064 ft | 442 kts | 309° |
| 2026-05-06 18:55 | 34.21557 | -99.95381 | 32067 ft | 441 kts | 309° |
| 2026-05-06 18:55 | 34.26502 | -99.99713 | 32086 ft | 441 kts | 309° |
| 2026-05-06 18:56 | 34.31461 | -100.04065 | 32092 ft | 440 kts | 309° |
| 2026-05-06 18:56 | 34.36416 | -100.08420 | 32104 ft | 440 kts | 309° |
| 2026-05-06 18:57 | 34.41335 | -100.12749 | 32105 ft | 439 kts | 309° |
| 2026-05-06 18:57 | 34.46266 | -100.17094 | 32089 ft | 437 kts | 309° |
| 2026-05-06 18:58 | 34.51189 | -100.21441 | 32092 ft | 437 kts | 309° |
| 2026-05-06 18:58 | 34.56066 | -100.25754 | 32163 ft | 436 kts | 309° |
| 2026-05-06 18:59 | 34.60977 | -100.30104 | 32097 ft | 437 kts | 309° |
| 2026-05-06 18:59 | 34.65894 | -100.34464 | 32093 ft | 436 kts | 309° |
| 2026-05-06 19:00 | 34.70794 | -100.38822 | 32091 ft | 435 kts | 308° |
| 2026-05-06 19:00 | 34.75672 | -100.43162 | 32096 ft | 436 kts | 309° |
| 2026-05-06 19:01 | 34.80570 | -100.47519 | 32150 ft | 435 kts | 308° |
| 2026-05-06 19:01 | 34.85432 | -100.51855 | 32115 ft | 435 kts | 308° |
| 2026-05-06 19:02 | 34.90315 | -100.56215 | 32106 ft | 434 kts | 308° |
| 2026-05-06 19:02 | 34.94367 | -100.59840 | 32118 ft | 433 kts | 308° |
| 2026-05-06 19:03 | 34.99234 | -100.64200 | 32115 ft | 432 kts | 308° |
| 2026-05-06 19:03 | 35.04050 | -100.68521 | 32153 ft | 431 kts | 308° |
| 2026-05-06 19:04 | 35.08881 | -100.72863 | 32114 ft | 430 kts | 308° |
| 2026-05-06 19:04 | 35.13697 | -100.77195 | 32119 ft | 428 kts | 308° |
| 2026-05-06 19:05 | 35.18492 | -100.81518 | 32117 ft | 427 kts | 308° |
| 2026-05-06 19:05 | 35.23243 | -100.85807 | 32114 ft | 426 kts | 308° |
| 2026-05-06 19:06 | 35.28010 | -100.90117 | 32181 ft | 426 kts | 307° |
| 2026-05-06 19:06 | 35.32780 | -100.94438 | 32144 ft | 425 kts | 307° |
| 2026-05-06 19:07 | 35.37541 | -100.98755 | 32136 ft | 425 kts | 307° |
| 2026-05-06 19:07 | 35.42298 | -101.03074 | 32136 ft | 425 kts | 307° |
| 2026-05-06 19:08 | 35.47016 | -101.07366 | 32137 ft | 425 kts | 307° |
| 2026-05-06 19:08 | 35.51766 | -101.11693 | 32136 ft | 425 kts | 307° |
| 2026-05-06 19:09 | 35.56517 | -101.16027 | 32135 ft | 425 kts | 307° |
| 2026-05-06 19:09 | 35.61274 | -101.20374 | 32139 ft | 426 kts | 307° |
| 2026-05-06 19:10 | 35.66035 | -101.24732 | 32141 ft | 427 kts | 307° |
| 2026-05-06 19:10 | 35.70802 | -101.29100 | 32152 ft | 427 kts | 307° |
| 2026-05-06 19:11 | 35.75555 | -101.33464 | 32154 ft | 429 kts | 307° |
| 2026-05-06 19:11 | 35.80353 | -101.37870 | 32149 ft | 431 kts | 307° |
| 2026-05-06 19:12 | 35.85372 | -101.42063 | 32140 ft | 439 kts | 311° |
| 2026-05-06 19:12 | 35.90542 | -101.46112 | 32131 ft | 440 kts | 311° |
| 2026-05-06 19:13 | 35.95707 | -101.50167 | 32201 ft | 439 kts | 311° |
| 2026-05-06 19:13 | 36.00829 | -101.54238 | 32139 ft | 440 kts | 310° |
| 2026-05-06 19:14 | 36.05969 | -101.58347 | 32127 ft | 439 kts | 310° |
| 2026-05-06 19:14 | 36.11093 | -101.62456 | 32128 ft | 438 kts | 310° |
| 2026-05-06 19:15 | 36.16215 | -101.66569 | 32129 ft | 438 kts | 310° |
| 2026-05-06 19:15 | 36.21323 | -101.70682 | 32135 ft | 439 kts | 311° |
| 2026-05-06 19:16 | 36.26414 | -101.74782 | 32136 ft | 439 kts | 311° |
| 2026-05-06 19:16 | 36.31541 | -101.78916 | 32130 ft | 439 kts | 311° |
| 2026-05-06 19:17 | 36.36665 | -101.83056 | 32132 ft | 438 kts | 311° |
| 2026-05-06 19:17 | 36.41746 | -101.87170 | 32168 ft | 439 kts | 313° |
| 2026-05-06 19:18 | 36.46871 | -101.91327 | 32142 ft | 440 kts | 313° |
| 2026-05-06 19:18 | 36.52008 | -101.95496 | 32129 ft | 441 kts | 313° |
| 2026-05-06 19:19 | 36.57120 | -101.99652 | 32130 ft | 441 kts | 313° |
| 2026-05-06 19:19 | 36.62261 | -102.03840 | 32128 ft | 441 kts | 313° |
| 2026-05-06 19:20 | 36.67407 | -102.08051 | 32132 ft | 443 kts | 315° |
| 2026-05-06 19:20 | 36.72582 | -102.12273 | 32126 ft | 445 kts | 315° |
| 2026-05-06 19:21 | 36.77762 | -102.16508 | 32132 ft | 445 kts | 315° |
| 2026-05-06 19:21 | 36.82881 | -102.20703 | 32111 ft | 446 kts | 315° |
| 2026-05-06 19:22 | 36.88079 | -102.24973 | 32108 ft | 447 kts | 317° |
| 2026-05-06 19:22 | 36.93251 | -102.29228 | 32099 ft | 448 kts | 317° |
| 2026-05-06 19:23 | 36.98464 | -102.33522 | 32105 ft | 449 kts | 317° |
| 2026-05-06 19:23 | 37.03680 | -102.37827 | 32091 ft | 449 kts | 317° |
| 2026-05-06 19:24 | 37.08906 | -102.42147 | 32104 ft | 450 kts | 317° |
| 2026-05-06 19:24 | 37.14131 | -102.46473 | 32102 ft | 450 kts | 317° |
| 2026-05-06 19:25 | 37.19340 | -102.50793 | 32093 ft | 450 kts | 317° |
| 2026-05-06 19:25 | 37.24561 | -102.55131 | 32103 ft | 450 kts | 317° |
| 2026-05-06 19:26 | 37.29767 | -102.59464 | 32136 ft | 450 kts | 318° |
| 2026-05-06 19:26 | 37.34992 | -102.63821 | 32121 ft | 450 kts | 318° |
| 2026-05-06 19:27 | 37.40222 | -102.68188 | 32115 ft | 450 kts | 318° |
| 2026-05-06 19:27 | 37.45439 | -102.72552 | 32126 ft | 449 kts | 318° |
| 2026-05-06 19:28 | 37.50614 | -102.76889 | 32173 ft | 449 kts | 318° |
| 2026-05-06 19:28 | 37.56203 | -102.80627 | 32150 ft | 460 kts | 329° |
| 2026-05-06 19:29 | 37.62147 | -102.83654 | 32156 ft | 461 kts | 330° |
| 2026-05-06 19:29 | 37.68051 | -102.86668 | 32171 ft | 459 kts | 329° |
| 2026-05-06 19:30 | 37.73933 | -102.89779 | 32170 ft | 458 kts | 329° |
| 2026-05-06 19:30 | 37.79796 | -102.92933 | 32174 ft | 458 kts | 328° |
| 2026-05-06 19:31 | 37.85654 | -102.96097 | 32178 ft | 457 kts | 328° |
| 2026-05-06 19:31 | 37.94434 | -103.00843 | 32215 ft | 457 kts | 329° |
| 2026-05-06 19:32 | 38.00303 | -103.04020 | 32189 ft | 458 kts | 329° |
| 2026-05-06 19:32 | 38.06126 | -103.07177 | 32182 ft | 458 kts | 329° |
| 2026-05-06 19:33 | 38.11989 | -103.10361 | 32183 ft | 458 kts | 328° |
| 2026-05-06 19:33 | 38.17845 | -103.13549 | 32185 ft | 458 kts | 329° |
| 2026-05-06 19:34 | 38.23668 | -103.16728 | 32184 ft | 458 kts | 329° |
| 2026-05-06 19:34 | 38.29533 | -103.19926 | 32183 ft | 458 kts | 329° |
| 2026-05-06 19:35 | 38.35389 | -103.23129 | 32180 ft | 458 kts | 329° |
| 2026-05-06 19:35 | 38.41237 | -103.26339 | 32189 ft | 458 kts | 329° |
| 2026-05-06 19:36 | 38.47048 | -103.29552 | 32182 ft | 457 kts | 329° |
| 2026-05-06 19:36 | 38.52885 | -103.32788 | 32182 ft | 456 kts | 329° |
| 2026-05-06 19:37 | 38.58709 | -103.36020 | 32206 ft | 456 kts | 330° |
| 2026-05-06 19:37 | 38.63551 | -103.38712 | 32192 ft | 456 kts | 330° |
| 2026-05-06 19:38 | 38.70364 | -103.42506 | 31809 ft | 460 kts | 330° |
| 2026-05-06 19:38 | 38.73300 | -103.44144 | 31158 ft | 458 kts | 329° |
| 2026-05-06 19:38 | 38.76225 | -103.45775 | 30412 ft | 458 kts | 329° |
| 2026-05-06 19:39 | 38.79152 | -103.47411 | 29507 ft | 458 kts | 329° |
| 2026-05-06 19:39 | 38.81832 | -103.49399 | 28601 ft | 446 kts | 315° |
| 2026-05-06 19:39 | 38.83986 | -103.52201 | 27749 ft | 438 kts | 307° |
| 2026-05-06 19:39 | 38.85999 | -103.55133 | 26804 ft | 438 kts | 307° |
| 2026-05-06 19:40 | 38.88020 | -103.58076 | 25846 ft | 439 kts | 307° |
| 2026-05-06 19:40 | 38.90046 | -103.60998 | 25148 ft | 435 kts | 307° |
| 2026-05-06 19:40 | 38.92059 | -103.63875 | 24472 ft | 430 kts | 308° |
| 2026-05-06 19:40 | 38.94054 | -103.66711 | 23814 ft | 425 kts | 308° |
| 2026-05-06 19:41 | 38.96036 | -103.69527 | 23042 ft | 424 kts | 308° |
| 2026-05-06 19:41 | 38.97989 | -103.72304 | 22348 ft | 424 kts | 308° |
| 2026-05-06 19:41 | 38.99959 | -103.75107 | 21674 ft | 419 kts | 308° |
| 2026-05-06 19:41 | 39.01909 | -103.77883 | 20997 ft | 414 kts | 309° |
| 2026-05-06 19:42 | 39.03828 | -103.80619 | 20436 ft | 408 kts | 309° |
| 2026-05-06 19:42 | 39.05692 | -103.83277 | 20307 ft | 392 kts | 309° |
| 2026-05-06 19:42 | 39.07487 | -103.85839 | 20125 ft | 380 kts | 309° |
| 2026-05-06 19:42 | 39.09250 | -103.88361 | 19970 ft | 375 kts | 309° |
| 2026-05-06 19:43 | 39.10966 | -103.90817 | 19812 ft | 363 kts | 309° |
| 2026-05-06 19:43 | 39.12604 | -103.93162 | 19639 ft | 352 kts | 309° |
| 2026-05-06 19:43 | 39.14234 | -103.95514 | 19201 ft | 350 kts | 309° |
| 2026-05-06 19:43 | 39.15844 | -103.97853 | 18802 ft | 348 kts | 309° |
| 2026-05-06 19:44 | 39.17444 | -104.00182 | 18370 ft | 346 kts | 309° |
| 2026-05-06 19:44 | 39.19034 | -104.02495 | 17925 ft | 343 kts | 309° |
| 2026-05-06 19:44 | 39.20614 | -104.04796 | 17484 ft | 341 kts | 309° |
| 2026-05-06 19:44 | 39.22179 | -104.07075 | 17075 ft | 338 kts | 309° |
| 2026-05-06 19:45 | 39.23731 | -104.09335 | 16673 ft | 335 kts | 309° |
| 2026-05-06 19:45 | 39.25257 | -104.11560 | 16500 ft | 326 kts | 309° |
| 2026-05-06 19:45 | 39.26750 | -104.13735 | 16347 ft | 320 kts | 309° |
| 2026-05-06 19:45 | 39.28184 | -104.15828 | 16204 ft | 310 kts | 309° |
| 2026-05-06 19:46 | 39.29575 | -104.17907 | 16078 ft | 300 kts | 304° |
| 2026-05-06 19:46 | 39.30454 | -104.20295 | 15774 ft | 294 kts | 284° |
| 2026-05-06 19:46 | 39.30912 | -104.22885 | 15348 ft | 296 kts | 281° |
| 2026-05-06 19:46 | 39.31306 | -104.25484 | 15019 ft | 294 kts | 281° |
| 2026-05-06 19:47 | 39.31694 | -104.28073 | 14703 ft | 293 kts | 281° |
| 2026-05-06 19:47 | 39.32088 | -104.30653 | 14376 ft | 292 kts | 281° |
| 2026-05-06 19:47 | 39.32481 | -104.33189 | 14047 ft | 291 kts | 282° |
| 2026-05-06 19:47 | 39.32882 | -104.35739 | 13701 ft | 289 kts | 282° |
| 2026-05-06 19:48 | 39.33279 | -104.38245 | 13569 ft | 280 kts | 282° |
| 2026-05-06 19:48 | 39.33665 | -104.40682 | 13423 ft | 274 kts | 282° |
| 2026-05-06 19:48 | 39.34044 | -104.43078 | 13311 ft | 272 kts | 282° |
| 2026-05-06 19:48 | 39.34425 | -104.45492 | 13045 ft | 277 kts | 282° |
| 2026-05-06 19:49 | 39.34810 | -104.47948 | 12756 ft | 280 kts | 282° |
| 2026-05-06 19:49 | 39.35283 | -104.50395 | 12483 ft | 281 kts | 295° |
| 2026-05-06 19:49 | 39.36528 | -104.52289 | 12196 ft | 279 kts | 328° |
| 2026-05-06 19:49 | 39.38286 | -104.53322 | 11957 ft | 277 kts | 338° |
| 2026-05-06 19:50 | 39.40062 | -104.54199 | 11701 ft | 276 kts | 339° |
| 2026-05-06 19:50 | 39.41861 | -104.55075 | 11442 ft | 276 kts | 338° |
| 2026-05-06 19:50 | 39.43658 | -104.55956 | 11190 ft | 276 kts | 339° |
| 2026-05-06 19:50 | 39.45458 | -104.56845 | 10942 ft | 276 kts | 338° |
| 2026-05-06 19:51 | 39.46645 | -104.57436 | 10771 ft | 276 kts | 338° |
| 2026-05-06 19:51 | 39.48434 | -104.58331 | 10520 ft | 276 kts | 338° |
| 2026-05-06 19:51 | 39.50812 | -104.59527 | 10196 ft | 276 kts | 338° |
| 2026-05-06 19:51 | 39.52598 | -104.60427 | 9931 ft | 274 kts | 339° |
| 2026-05-06 19:52 | 39.53793 | -104.61031 | 9747 ft | 272 kts | 339° |
| 2026-05-06 19:52 | 39.55544 | -104.61915 | 9508 ft | 266 kts | 338° |
| 2026-05-06 19:52 | 39.57238 | -104.62772 | 9263 ft | 256 kts | 338° |
| 2026-05-06 19:52 | 39.58864 | -104.63595 | 9053 ft | 244 kts | 338° |
| 2026-05-06 19:53 | 39.60415 | -104.64381 | 8996 ft | 236 kts | 338° |
| 2026-05-06 19:53 | 39.61924 | -104.65146 | 8993 ft | 236 kts | 338° |
| 2026-05-06 19:53 | 39.63464 | -104.65926 | 8989 ft | 238 kts | 339° |
| 2026-05-06 19:53 | 39.65078 | -104.66329 | 8981 ft | 238 kts | 1° |
| 2026-05-06 19:54 | 39.66750 | -104.66230 | 8722 ft | 242 kts | 1° |
| 2026-05-06 19:54 | 39.68437 | -104.66214 | 8406 ft | 242 kts | 360° |
| 2026-05-06 19:54 | 39.70112 | -104.66207 | 8080 ft | 237 kts | 0° |
| 2026-05-06 19:54 | 39.71722 | -104.66190 | 7757 ft | 225 kts | 0° |
| 2026-05-06 19:55 | 39.73242 | -104.66170 | 7473 ft | 212 kts | 0° |
| 2026-05-06 19:55 | 39.74667 | -104.66153 | 7187 ft | 199 kts | 0° |
| 2026-05-06 19:55 | 39.76024 | -104.66137 | 6932 ft | 193 kts | 0° |
| 2026-05-06 19:55 | 39.77356 | -104.66121 | 6694 ft | 188 kts | 0° |
| 2026-05-06 19:56 | 39.78609 | -104.66106 | 6440 ft | 172 kts | 1° |
| 2026-05-06 19:56 | 39.79763 | -104.66092 | 6126 ft | 161 kts | 1° |
| 2026-05-06 19:56 | 39.80873 | -104.66078 | 5888 ft | 159 kts | 1° |
| 2026-05-06 19:56 | 39.81975 | -104.66065 | 5663 ft | 159 kts | 1° |
| 2026-05-06 19:57 | 39.83080 | -104.66052 | 5448 ft | 158 kts | 1° |
| 2026-05-06 19:57 | 39.84029 | -104.66044 | 5413 ft | 107 kts | 1° |
| 2026-05-06 19:57 | 39.84600 | -104.66035 | 5410 ft | 60 kts | 0° |
| 2026-05-06 19:57 | 39.84994 | -104.66040 | 5395 ft | 44 kts | 357° |
| 2026-05-06 19:58 | 39.85197 | -104.66091 | 5394 ft | 22 kts | 334° |
| 2026-05-06 19:58 | 39.85331 | -104.66184 | 5389 ft | 22 kts | 331° |
| 2026-05-06 19:58 | 39.85472 | -104.66237 | 5392 ft | 21 kts | 358° |
| 2026-05-06 19:58 | 39.85607 | -104.66236 | 5392 ft | 15 kts | 0° |
| 2026-05-06 19:59 | 39.85708 | -104.66236 | 5391 ft | 14 kts | 359° |
| 2026-05-06 19:59 | 39.85806 | -104.66235 | 5389 ft | 14 kts | 0° |
| 2026-05-06 19:59 | 39.85915 | -104.66233 | 5392 ft | 17 kts | 1° |
| 2026-05-06 19:59 | 39.86044 | -104.66232 | 5388 ft | 18 kts | 358° |
| 2026-05-06 20:00 | 39.86107 | -104.66357 | 5386 ft | 20 kts | 270° |
| 2026-05-06 20:00 | 39.86115 | -104.66541 | 5385 ft | 20 kts | 287° |
| 2026-05-06 20:00 | 39.86128 | -104.66718 | 5385 ft | 20 kts | 270° |
| 2026-05-06 20:00 | 39.86129 | -104.66890 | 5385 ft | 19 kts | 270° |
| 2026-05-06 20:01 | 39.86130 | -104.67058 | 5385 ft | 18 kts | 270° |
| 2026-05-06 20:01 | 39.86132 | -104.67221 | 5380 ft | 18 kts | 271° |
| 2026-05-06 20:01 | 39.86133 | -104.67378 | 5385 ft | 17 kts | 270° |
| 2026-05-06 20:01 | 39.86134 | -104.67504 | 5385 ft | 7 kts | 270° |
| 2026-05-06 20:02 | 39.86134 | -104.67568 | 5385 ft | 7 kts | 270° |
| 2026-05-06 20:02 | 39.86135 | -104.67634 | 5385 ft | 7 kts | 271° |
| 2026-05-06 20:02 | 39.86139 | -104.67700 | 5382 ft | 7 kts | 292° |
| 2026-05-06 20:02 | 39.86185 | -104.67733 | 5385 ft | 8 kts | 348° |
| 2026-05-06 20:03 | 39.86238 | -104.67736 | 5385 ft | 7 kts | 0° |
| 2026-05-06 20:03 | 39.86252 | -104.67736 | 5385 ft | 0 kts | 0° |
| 2026-05-06 20:03 | 39.86259 | -104.67736 | 5385 ft | 0 kts | 0° |